Home   Weather   China   Langfang   Past weeks
Flag for China

Past Weather in Langfang, Hebei, China — Yesterday and Last 2 Weeks

Currently: 75 °F. Clear. (Weather station: Beijing Airport, China). See more current weather

Past Weather in Langfang — Graph

°F

Langfang Temperature Yesterday

Maximum temperature yesterday: 99 °F (at 2:30 pm)
Minimum temperature yesterday: 70 °F (at 4:00 am)
Average temperature yesterday: 86 °F

High & Low Weather Summary for the Past Weeks

 TemperatureHumidityPressure
High100 °F (Jun 17, 3:00 pm)100% (Jun 7, 11:00 pm)29.95 "Hg (Jun 7, 11:00 pm)
Low59 °F (Jun 8, 3:30 am)18% (Jun 9, 2:00 pm)29.39 "Hg (Jun 13, 3:30 pm)
Average80 °F58%29.66 "Hg
* Reported Jun 4 2:00 am — Jun 19 2:30 am, Langfang. Weather by CustomWeather, © 2024

Note: Actual official high and low records may vary slightly from our data, if they occured in-between our weather recording intervals... More about our weather records

Langfang Weather History for the Previous 24 Hours

Scroll right to see more
 ConditionsComfort  
Time TempWeatherWind HumidityBarometerVisibility
2:30 am
Wed, Jun 19
77 °FClear.1 mph65%29.56 "Hg10 mi
2:00 am77 °FClear.3 mph65%29.56 "Hg10 mi
1:30 am81 °FClear.1 mph54%29.56 "Hg10 mi
1:00 am82 °FPassing clouds.6 mph51%29.56 "HgN/A
12:30 am82 °FClear.3 mph51%29.56 "Hg10 mi
12:00 am81 °FPassing clouds.3 mph54%29.56 "HgN/A
11:30 pm
Tue, Jun 18
81 °FClear.3 mph54%29.56 "Hg10 mi
11:00 pm82 °FPassing clouds.3 mph51%29.56 "HgN/A
10:00 pm88 °FClear.6 mph38%29.56 "Hg10 mi
9:30 pm90 °FPassing clouds.6 mph38%29.56 "HgN/A
8:30 pm90 °FClear.3 mph36%29.53 "Hg10 mi
7:00 pm93 °FSunny.6 mph30%29.50 "Hg10 mi
6:30 pm95 °FSunny.6 mph30%29.50 "Hg10 mi
5:30 pm99 °FPassing clouds.8 mph29%29.50 "HgN/A
4:30 pm99 °FPassing clouds.10 mph25%29.50 "HgN/A
3:30 pm99 °FPassing clouds.10 mph31%29.50 "HgN/A
2:30 pm99 °FPassing clouds.10 mph31%29.53 "HgN/A
1:30 pm97 °FPassing clouds.10 mph34%29.56 "HgN/A
1:00 pm95 °FPassing clouds.10 mph36%29.56 "HgN/A
12:30 pm97 °FPassing clouds.10 mph37%29.56 "HgN/A
12:00 pm97 °FPassing clouds.10 mph32%29.56 "HgN/A
11:30 am95 °FPassing clouds.8 mph36%29.59 "HgN/A
11:00 am93 °FPassing clouds.8 mph36%29.59 "HgN/A
10:30 am91 °FSunny.3 mph41%29.59 "Hg10 mi
10:00 am91 °FPassing clouds.3 mph38%29.59 "HgN/A
9:30 am90 °FSunny.1 mph43%29.59 "Hg10 mi
9:00 am88 °FSunny.1 mph43%29.59 "Hg10 mi
8:30 am86 °FPassing clouds.3 mph40%29.62 "HgN/A
8:00 am84 °FPassing clouds.3 mph48%29.59 "HgN/A
7:30 am82 °FSunny.1 mph51%29.62 "Hg10 mi
7:00 am81 °FSunny.1 mph54%29.59 "Hg10 mi
6:30 am77 °FSunny.3 mph57%29.59 "Hg10 mi
6:00 am72 °FSunny.1 mph73%29.59 "Hg10 mi
5:30 am72 °FSunny.1 mph69%29.59 "Hg10 mi
5:00 am70 °FSunny.3 mph73%29.59 "Hg10 mi
4:30 am70 °FClear.3 mph73%29.59 "Hg10 mi
4:00 am70 °FClear.3 mph73%29.56 "Hg10 mi
3:30 am73 °FClear.1 mph65%29.56 "Hg10 mi
3:00 am73 °FClear.3 mph61%29.56 "Hg10 mi
Weather by CustomWeather, © 2024

See weather overview